Time;durP1;ratioP1;P1;durP2;ratioP2;P2;SDS_P1;SDS_P2;PMS_P1;PMS_P2;Temp;Humidity;BMP_temperature;BMP_pressure;BME280_temperature;BME280_humidity;BME280_pressure;Samples;Min_cycle;Max_cycle;Signal;HPM_P1;HPM_P2
2022/05/21 00:01:34;;;;;;;;;;;16.40;85.20;;;;;;5067326;28;20444;-72
2022/05/21 00:04:00;;;;;;;;;;;16.50;85.70;;;;;;5065017;28;19912;-73
2022/05/21 00:06:25;;;;;;;;;;;16.40;85.70;;;;;;5067260;28;19919;-72
2022/05/21 00:08:51;;;;;;;;;;;16.40;85.80;;;;;;5052548;28;19982;-72
2022/05/21 00:11:16;;;;;;;;;;;16.40;85.50;;;;;;5063053;28;19946;-72
2022/05/21 00:13:42;;;;;;;;;;;16.40;85.80;;;;;;5067238;28;19919;-72
2022/05/21 00:16:07;;;;;;;;;;;16.40;85.90;;;;;;5053216;28;19928;-73
2022/05/21 00:18:34;;;;;;;;;;;16.40;85.90;;;;;;5028942;28;19913;-72
2022/05/21 00:20:59;;;;;;;;;;;16.40;85.80;;;;;;5058461;28;19944;-73
2022/05/21 00:23:26;;;;;;;;;;;16.40;85.80;;;;;;5067043;28;20007;-72
2022/05/21 00:25:56;;;;;;;;;;;16.40;85.90;;;;;;5063920;28;19944;-72
2022/05/21 00:28:22;;;;;;;;;;;16.30;85.50;;;;;;5066720;28;20021;-72
2022/05/21 00:30:48;;;;;;;;;;;16.30;85.90;;;;;;5064088;28;20373;-73
2022/05/21 00:33:14;;;;;;;;;;;16.30;85.90;;;;;;5066743;28;19908;-72
2022/05/21 00:35:40;;;;;;;;;;;16.30;86.00;;;;;;5063892;28;20332;-72
2022/05/21 00:38:05;;;;;;;;;;;16.20;85.80;;;;;;5061397;28;19912;-73
2022/05/21 00:40:31;;;;;;;;;;;16.30;86.20;;;;;;5046150;28;19955;-73
2022/05/21 00:42:56;;;;;;;;;;;16.20;86.10;;;;;;5046773;28;19912;-72
2022/05/21 00:45:22;;;;;;;;;;;16.20;85.80;;;;;;5046216;28;19917;-73
2022/05/21 00:47:48;;;;;;;;;;;16.20;86.00;;;;;;5044769;28;19960;-73
2022/05/21 00:50:15;;;;;;;;;;;16.20;86.40;;;;;;5046600;28;19913;-73
2022/05/21 00:52:41;;;;;;;;;;;16.20;86.20;;;;;;5053792;28;19940;-73
2022/05/21 00:55:09;;;;;;;;;;;16.10;86.20;;;;;;5046174;28;20362;-73
2022/05/21 00:57:37;;;;;;;;;;;16.10;86.40;;;;;;5058158;28;19999;-73
2022/05/21 01:00:14;;;;;;;;;;;16.00;86.70;;;;;;5065860;28;19909;-73
2022/05/21 01:02:44;;;;;;;;;;;16.00;86.10;;;;;;5063163;28;19916;-73
2022/05/21 01:05:12;;;;;;;;;;;16.00;86.50;;;;;;5048302;28;19947;-73
2022/05/21 01:07:38;;;;;;;;;;;16.00;86.80;;;;;;5061344;28;19923;-72
2022/05/21 01:10:05;;;;;;;;;;;16.00;86.90;;;;;;5042913;28;19909;-73
2022/05/21 01:12:32;;;;;;;;;;;16.00;86.60;;;;;;5046157;28;20407;-73
2022/05/21 01:15:02;;;;;;;;;;;16.00;87.00;;;;;;5046200;28;19920;-72
2022/05/21 01:17:28;;;;;;;;;;;15.90;86.90;;;;;;5049766;28;19919;-72
2022/05/21 01:19:54;;;;;;;;;;;15.90;87.30;;;;;;5065595;28;19913;-72
2022/05/21 01:22:24;;;;;;;;;;;15.90;87.30;;;;;;5037514;28;19920;-72
2022/05/21 01:24:49;;;;;;;;;;;15.90;87.30;;;;;;5025966;28;19983;-73
2022/05/21 01:27:15;;;;;;;;;;;15.90;87.40;;;;;;5026930;28;20629;-72
2022/05/21 01:29:41;;;;;;;;;;;15.80;87.50;;;;;;5065477;28;19923;-73
2022/05/21 01:32:14;;;;;;;;;;;15.80;87.40;;;;;;5065933;28;19944;-73
2022/05/21 01:34:39;;;;;;;;;;;15.80;87.10;;;;;;5064570;28;19923;-73
2022/05/21 01:37:05;;;;;;;;;;;15.80;87.30;;;;;;5037985;28;19913;-73
2022/05/21 01:39:30;;;;;;;;;;;15.80;87.40;;;;;;5047358;28;19920;-72
2022/05/21 01:41:56;;;;;;;;;;;15.80;88.10;;;;;;5046737;28;20445;-73
2022/05/21 01:44:40;;;;;;;;;;;15.80;87.40;;;;;;5063062;28;19997;-73
2022/05/21 01:47:09;;;;;;;;;;;15.70;87.10;;;;;;5046702;28;20007;-73
2022/05/21 01:49:36;;;;;;;;;;;15.70;87.40;;;;;;5043271;28;19929;-73
2022/05/21 01:52:02;;;;;;;;;;;15.70;87.10;;;;;;5043474;28;19924;-72
2022/05/21 01:54:28;;;;;;;;;;;15.70;87.30;;;;;;5046709;28;19924;-73
2022/05/21 01:56:53;;;;;;;;;;;15.70;87.40;;;;;;5065171;28;19920;-72
2022/05/21 01:59:19;;;;;;;;;;;15.70;87.50;;;;;;5044803;28;19912;-72
2022/05/21 02:01:44;;;;;;;;;;;15.60;87.30;;;;;;5065282;28;19926;-72
2022/05/21 02:04:10;;;;;;;;;;;15.70;87.30;;;;;;5062445;28;19919;-72
2022/05/21 02:06:35;;;;;;;;;;;15.60;87.10;;;;;;5064934;28;19969;-72
2022/05/21 02:09:01;;;;;;;;;;;15.70;87.20;;;;;;5053851;28;20512;-73
2022/05/21 02:11:26;;;;;;;;;;;15.60;87.20;;;;;;5065076;28;19916;-72
2022/05/21 02:13:52;;;;;;;;;;;15.60;87.10;;;;;;5062863;28;20673;-72
2022/05/21 02:16:17;;;;;;;;;;;15.60;86.60;;;;;;5052723;28;20408;-72
2022/05/21 02:18:43;;;;;;;;;;;15.60;87.20;;;;;;5027303;28;19940;-73
2022/05/21 02:21:08;;;;;;;;;;;15.60;87.20;;;;;;5059777;28;19940;-72
2022/05/21 02:23:34;;;;;;;;;;;15.60;87.30;;;;;;5065036;28;20015;-72
2022/05/21 02:26:00;;;;;;;;;;;15.60;87.30;;;;;;5062205;28;20470;-72
2022/05/21 02:28:26;;;;;;;;;;;15.60;87.30;;;;;;5063784;28;20373;-72
2022/05/21 02:30:51;;;;;;;;;;;15.60;87.30;;;;;;5062462;28;19995;-72
2022/05/21 02:33:17;;;;;;;;;;;15.60;87.10;;;;;;5065056;28;19981;-72
2022/05/21 02:35:42;;;;;;;;;;;15.50;86.90;;;;;;5061752;28;20365;-72
2022/05/21 02:40:52;;;;;;;;;;;15.50;86.80;;;;;;5040142;28;19982;-72
2022/05/21 02:43:17;;;;;;;;;;;15.50;87.20;;;;;;5065068;28;19912;-72
2022/05/21 02:45:43;;;;;;;;;;;15.50;87.00;;;;;;5060956;28;19970;-72
2022/05/21 02:48:08;;;;;;;;;;;15.50;87.30;;;;;;5046693;28;19919;-72
2022/05/21 02:50:34;;;;;;;;;;;15.50;87.00;;;;;;5062414;28;19921;-73
2022/05/21 02:53:04;;;;;;;;;;;15.50;87.20;;;;;;5054894;28;20415;-73
2022/05/21 02:55:30;;;;;;;;;;;15.50;87.20;;;;;;5043367;28;19919;-72
2022/05/21 02:57:56;;;;;;;;;;;15.50;87.10;;;;;;5064095;28;19913;-73
2022/05/21 03:00:23;;;;;;;;;;;15.50;87.00;;;;;;5064523;28;20621;-73
2022/05/21 03:02:49;;;;;;;;;;;15.50;86.90;;;;;;5062076;28;19921;-72
2022/05/21 03:05:15;;;;;;;;;;;15.40;86.70;;;;;;5057970;28;20388;-73
2022/05/21 03:07:42;;;;;;;;;;;15.40;86.80;;;;;;5055595;28;20380;-73
2022/05/21 03:10:23;;;;;;;;;;;15.40;86.80;;;;;;5046498;28;20487;-73
2022/05/21 03:12:55;;;;;;;;;;;15.40;87.20;;;;;;5056521;28;20433;-72
2022/05/21 03:15:23;;;;;;;;;;;15.40;87.10;;;;;;5060040;28;19913;-72
2022/05/21 03:17:49;;;;;;;;;;;15.40;87.20;;;;;;5055129;28;20536;-72
2022/05/21 03:20:16;;;;;;;;;;;15.40;86.90;;;;;;5063793;28;19920;-73
2022/05/21 03:22:42;;;;;;;;;;;15.40;87.10;;;;;;5063379;28;19923;-73
2022/05/21 03:25:08;;;;;;;;;;;15.40;86.60;;;;;;5066621;28;19912;-73
2022/05/21 03:27:34;;;;;;;;;;;15.30;87.00;;;;;;5065189;28;19931;-72
2022/05/21 03:30:01;;;;;;;;;;;15.30;86.90;;;;;;5068372;28;19912;-72
2022/05/21 03:32:26;;;;;;;;;;;15.30;87.00;;;;;;5065289;28;19923;-72
2022/05/21 03:34:52;;;;;;;;;;;15.30;86.90;;;;;;5046974;28;20091;-72
2022/05/21 03:37:17;;;;;;;;;;;15.30;86.30;;;;;;5031867;28;19982;-73
2022/05/21 03:39:43;;;;;;;;;;;15.30;87.00;;;;;;5048643;28;20361;-73
2022/05/21 03:42:09;;;;;;;;;;;15.30;86.40;;;;;;5050419;28;20011;-72
2022/05/21 03:44:35;;;;;;;;;;;15.20;87.00;;;;;;5065146;28;19916;-73
2022/05/21 03:47:01;;;;;;;;;;;15.30;87.00;;;;;;5028536;28;19960;-73
2022/05/21 03:49:27;;;;;;;;;;;15.30;87.20;;;;;;5061969;28;19956;-73
2022/05/21 03:51:52;;;;;;;;;;;15.20;86.80;;;;;;5067204;28;20366;-72
2022/05/21 03:54:18;;;;;;;;;;;15.20;86.70;;;;;;5058866;28;19923;-72
2022/05/21 03:56:43;;;;;;;;;;;15.20;86.60;;;;;;5067147;28;19955;-72
2022/05/21 03:59:09;;;;;;;;;;;15.20;86.60;;;;;;5064687;28;20341;-72
2022/05/21 04:01:34;;;;;;;;;;;15.10;86.80;;;;;;5060097;28;20020;-72
2022/05/21 04:04:00;;;;;;;;;;;15.10;86.70;;;;;;5052876;28;20004;-73
2022/05/21 04:06:25;;;;;;;;;;;15.20;86.90;;;;;;5066991;28;19912;-72
2022/05/21 04:08:52;;;;;;;;;;;15.20;87.00;;;;;;5054828;28;19917;-72
2022/05/21 04:11:18;;;;;;;;;;;15.10;86.60;;;;;;5046929;28;19992;-73
2022/05/21 04:13:43;;;;;;;;;;;15.20;86.60;;;;;;5047723;28;20654;-73
2022/05/21 04:16:09;;;;;;;;;;;15.10;86.70;;;;;;5056164;28;19917;-74
2022/05/21 04:18:34;;;;;;;;;;;15.20;87.00;;;;;;5045608;28;19917;-73
2022/05/21 04:21:00;;;;;;;;;;;15.20;86.40;;;;;;5063900;28;19916;-73
2022/05/21 04:23:25;;;;;;;;;;;15.10;87.00;;;;;;5067164;28;20677;-73
2022/05/21 04:25:51;;;;;;;;;;;15.10;86.80;;;;;;5064487;28;20634;-73
2022/05/21 04:28:16;;;;;;;;;;;15.10;86.60;;;;;;5066790;28;19927;-73
2022/05/21 04:30:42;;;;;;;;;;;15.10;87.00;;;;;;5064323;28;20124;-73
2022/05/21 04:33:07;;;;;;;;;;;15.10;87.00;;;;;;5066615;28;19916;-73
2022/05/21 04:38:17;;;;;;;;;;;15.10;86.80;;;;;;5047296;28;19920;-73
2022/05/21 04:40:42;;;;;;;;;;;15.20;86.90;;;;;;5054493;28;19920;-73
2022/05/21 04:43:08;;;;;;;;;;;15.20;86.80;;;;;;5066480;28;19912;-73
2022/05/21 04:45:34;;;;;;;;;;;15.20;86.80;;;;;;5057453;28;20010;-73
2022/05/21 04:48:06;;;;;;;;;;;15.10;86.80;;;;;;5046544;28;19912;-73
2022/05/21 04:50:33;;;;;;;;;;;15.10;87.00;;;;;;5049361;28;19939;-73
2022/05/21 04:52:59;;;;;;;;;;;15.10;87.00;;;;;;5056777;28;19912;-73
2022/05/21 04:55:24;;;;;;;;;;;15.10;87.20;;;;;;5046466;28;20634;-72
2022/05/21 04:57:50;;;;;;;;;;;15.10;87.00;;;;;;5059155;28;19912;-72
2022/05/21 05:00:16;;;;;;;;;;;15.10;87.20;;;;;;5045181;28;20277;-73
2022/05/21 05:02:41;;;;;;;;;;;15.00;87.10;;;;;;5065809;28;19982;-73
2022/05/21 05:05:07;;;;;;;;;;;15.10;87.30;;;;;;5065922;28;19912;-72
2022/05/21 05:07:34;;;;;;;;;;;15.00;87.20;;;;;;5061867;28;19916;-74
2022/05/21 05:09:59;;;;;;;;;;;15.10;87.20;;;;;;5048107;28;19920;-72
2022/05/21 05:12:25;;;;;;;;;;;15.10;87.00;;;;;;5056955;28;19917;-73
2022/05/21 05:14:50;;;;;;;;;;;15.10;87.20;;;;;;5065197;28;19924;-72
2022/05/21 05:17:16;;;;;;;;;;;15.00;86.80;;;;;;5054532;28;19924;-72
2022/05/21 05:19:41;;;;;;;;;;;15.00;87.40;;;;;;5064563;28;19916;-73
2022/05/21 05:22:10;;;;;;;;;;;15.10;87.20;;;;;;5062315;28;19930;-73
2022/05/21 05:24:36;;;;;;;;;;;15.10;87.20;;;;;;5063392;28;20270;-73
2022/05/21 05:27:02;;;;;;;;;;;15.10;87.20;;;;;;5062549;28;19923;-72
2022/05/21 05:29:28;;;;;;;;;;;15.10;87.10;;;;;;5061444;28;20437;-73
2022/05/21 05:31:54;;;;;;;;;;;15.10;87.00;;;;;;5032322;28;19973;-72
2022/05/21 05:34:19;;;;;;;;;;;15.10;86.90;;;;;;5065376;28;20571;-72
2022/05/21 05:36:47;;;;;;;;;;;15.10;86.90;;;;;;5062411;28;19913;-72
2022/05/21 05:39:13;;;;;;;;;;;15.20;86.80;;;;;;5045622;28;19952;-73
2022/05/21 05:41:39;;;;;;;;;;;15.10;86.80;;;;;;5045892;28;20003;-73
2022/05/21 05:44:05;;;;;;;;;;;15.20;87.00;;;;;;5061761;28;19912;-73
2022/05/21 05:46:30;;;;;;;;;;;15.20;87.10;;;;;;5050852;28;19921;-73
2022/05/21 05:48:56;;;;;;;;;;;15.20;87.00;;;;;;5058756;28;19958;-72
2022/05/21 05:51:21;;;;;;;;;;;15.20;86.90;;;;;;5065700;28;19918;-73
2022/05/21 05:53:47;;;;;;;;;;;15.20;86.80;;;;;;5054602;28;19917;-73
2022/05/21 05:56:13;;;;;;;;;;;15.20;87.00;;;;;;5045090;28;20020;-73
2022/05/21 06:01:23;;;;;;;;;;;15.20;86.90;;;;;;5065809;28;19986;-73
2022/05/21 06:03:49;;;;;;;;;;;15.20;86.60;;;;;;5062736;28;20003;-72
2022/05/21 06:06:15;;;;;;;;;;;15.30;86.80;;;;;;5065382;28;20581;-73
2022/05/21 06:08:40;;;;;;;;;;;15.30;86.70;;;;;;5056000;28;20626;-72
2022/05/21 06:11:06;;;;;;;;;;;15.30;86.60;;;;;;5045044;28;19955;-72
2022/05/21 06:13:31;;;;;;;;;;;15.30;86.60;;;;;;5046255;28;19917;-73
2022/05/21 06:15:57;;;;;;;;;;;15.40;86.60;;;;;;5056132;28;19917;-72
2022/05/21 06:18:22;;;;;;;;;;;15.40;86.50;;;;;;5043826;28;19916;-73
2022/05/21 06:20:51;;;;;;;;;;;15.40;86.40;;;;;;5064373;28;20000;-73
2022/05/21 06:23:16;;;;;;;;;;;15.40;86.40;;;;;;5065107;28;19912;-73
2022/05/21 06:25:42;;;;;;;;;;;15.40;86.40;;;;;;5062265;28;19979;-73
2022/05/21 06:28:08;;;;;;;;;;;15.40;86.40;;;;;;5065047;28;19921;-73
2022/05/21 06:30:34;;;;;;;;;;;15.40;86.40;;;;;;5062273;28;19920;-73
2022/05/21 06:33:10;;;;;;;;;;;15.40;86.30;;;;;;5065081;28;19913;-73
2022/05/21 06:35:36;;;;;;;;;;;15.40;86.30;;;;;;5061972;28;19920;-72
2022/05/21 06:38:03;;;;;;;;;;;15.50;86.50;;;;;;5049530;28;19917;-72
2022/05/21 06:40:28;;;;;;;;;;;15.40;86.20;;;;;;5051899;28;19923;-73
2022/05/21 06:42:54;;;;;;;;;;;15.40;86.30;;;;;;5064867;28;19912;-73
2022/05/21 06:45:19;;;;;;;;;;;15.50;86.40;;;;;;5058024;28;20363;-72
2022/05/21 06:47:45;;;;;;;;;;;15.50;86.30;;;;;;5044799;28;20031;-73
2022/05/21 06:50:10;;;;;;;;;;;15.50;86.10;;;;;;5048772;28;19917;-73
2022/05/21 06:52:39;;;;;;;;;;;15.50;85.90;;;;;;5058568;28;19913;-73
2022/05/21 06:55:05;;;;;;;;;;;15.60;86.00;;;;;;5045733;28;19986;-72
2022/05/21 06:57:30;;;;;;;;;;;15.60;86.00;;;;;;5065696;28;20640;-73
2022/05/21 06:59:56;;;;;;;;;;;15.60;86.00;;;;;;5066172;28;19916;-73
2022/05/21 07:02:22;;;;;;;;;;;15.60;86.00;;;;;;5028561;28;19944;-73
2022/05/21 07:07:35;;;;;;;;;;;15.60;85.80;;;;;;5066488;28;20009;-72
2022/05/21 07:10:12;;;;;;;;;;;15.60;85.80;;;;;;5050388;28;19942;-73
2022/05/21 07:12:37;;;;;;;;;;;15.70;85.90;;;;;;5065423;28;19921;-72
2022/05/21 07:15:04;;;;;;;;;;;15.70;85.70;;;;;;5066761;28;20030;-73
2022/05/21 07:17:29;;;;;;;;;;;15.70;85.70;;;;;;5061863;28;20008;-73
2022/05/21 07:19:55;;;;;;;;;;;15.70;86.00;;;;;;5066243;28;19999;-72
2022/05/21 07:22:21;;;;;;;;;;;15.60;85.80;;;;;;5055858;28;19962;-72
2022/05/21 07:24:46;;;;;;;;;;;15.70;86.00;;;;;;5068184;28;19966;-73
2022/05/21 07:27:12;;;;;;;;;;;15.70;85.90;;;;;;5046798;28;19960;-72
2022/05/21 07:29:38;;;;;;;;;;;15.60;85.80;;;;;;5068068;28;19919;-73
2022/05/21 07:32:04;;;;;;;;;;;15.60;86.10;;;;;;5065365;28;19913;-72
2022/05/21 07:34:29;;;;;;;;;;;15.60;86.10;;;;;;5067733;28;19917;-74
2022/05/21 07:36:55;;;;;;;;;;;15.60;86.10;;;;;;5063501;28;19923;-73
2022/05/21 07:39:20;;;;;;;;;;;15.60;86.00;;;;;;5040194;28;20564;-72
2022/05/21 07:41:46;;;;;;;;;;;15.60;86.00;;;;;;5048240;28;19920;-73
2022/05/21 07:44:11;;;;;;;;;;;15.60;86.00;;;;;;5027672;28;19913;-73
2022/05/21 07:46:37;;;;;;;;;;;15.70;86.00;;;;;;5023780;28;19909;-73
2022/05/21 07:49:02;;;;;;;;;;;15.60;85.80;;;;;;5065493;28;20261;-73
2022/05/21 07:51:30;;;;;;;;;;;15.60;86.00;;;;;;5052544;28;19939;-73
2022/05/21 07:53:55;;;;;;;;;;;15.60;86.00;;;;;;5062340;28;19924;-73
2022/05/21 07:56:21;;;;;;;;;;;15.60;85.90;;;;;;5067475;28;19912;-74
2022/05/21 07:58:47;;;;;;;;;;;15.60;86.10;;;;;;5064804;28;20011;-73
2022/05/21 08:01:13;;;;;;;;;;;15.60;86.00;;;;;;5067858;28;19912;-72
2022/05/21 08:03:38;;;;;;;;;;;15.60;85.90;;;;;;5064993;28;19968;-72
2022/05/21 08:06:04;;;;;;;;;;;15.60;86.00;;;;;;5066986;28;20050;-73
2022/05/21 08:08:29;;;;;;;;;;;15.60;85.80;;;;;;5062319;28;19916;-73
2022/05/21 08:10:55;;;;;;;;;;;15.60;86.00;;;;;;5047011;28;19913;-73
2022/05/21 08:13:20;;;;;;;;;;;15.60;85.80;;;;;;5050580;28;20598;-73
2022/05/21 08:15:46;;;;;;;;;;;15.60;85.90;;;;;;5059465;28;19917;-73
2022/05/21 08:18:11;;;;;;;;;;;15.70;86.00;;;;;;5047580;28;19923;-72
2022/05/21 08:20:38;;;;;;;;;;;15.70;85.80;;;;;;5066741;28;19913;-72
2022/05/21 08:28:32;;;;;;;;;;;15.70;85.90;;;;;;5047325;28;19927;-73
2022/05/21 08:30:58;;;;;;;;;;;15.70;85.50;;;;;;5067105;28;20637;-73
2022/05/21 08:33:24;;;;;;;;;;;15.80;85.40;;;;;;5066847;28;19997;-72
2022/05/21 08:35:50;;;;;;;;;;;15.80;85.10;;;;;;5033817;28;19917;-73
2022/05/21 08:38:16;;;;;;;;;;;15.90;84.90;;;;;;5035085;28;19909;-73
2022/05/21 08:40:44;;;;;;;;;;;16.00;84.90;;;;;;5060324;28;19917;-73
2022/05/21 08:43:15;;;;;;;;;;;16.10;84.70;;;;;;5044356;28;19959;-72
2022/05/21 08:45:41;;;;;;;;;;;16.10;84.50;;;;;;5050448;28;20242;-73
2022/05/21 08:48:07;;;;;;;;;;;16.10;84.50;;;;;;5046538;28;19923;-73
2022/05/21 08:50:34;;;;;;;;;;;16.20;84.30;;;;;;5056231;28;19916;-73
2022/05/21 08:53:02;;;;;;;;;;;16.20;84.30;;;;;;5056683;28;20028;-72
2022/05/21 08:55:35;;;;;;;;;;;16.20;84.20;;;;;;5053588;28;19920;-73
2022/05/21 08:58:02;;;;;;;;;;;16.30;84.40;;;;;;5065613;28;20403;-72
2022/05/21 09:00:38;;;;;;;;;;;16.30;84.20;;;;;;5063321;28;19955;-72
2022/05/21 09:03:11;;;;;;;;;;;16.30;84.10;;;;;;5065996;28;19954;-72
2022/05/21 09:05:38;;;;;;;;;;;16.40;84.10;;;;;;5062994;28;19919;-74
2022/05/21 09:08:24;;;;;;;;;;;16.40;83.90;;;;;;5060508;28;19917;-73
2022/05/21 09:11:01;;;;;;;;;;;16.40;83.80;;;;;;5039497;28;20430;-73
2022/05/21 09:13:29;;;;;;;;;;;16.40;84.00;;;;;;5065710;28;19916;-73
2022/05/21 09:18:39;;;;;;;;;;;16.30;84.10;;;;;;5045776;28;19959;-73
2022/05/21 09:21:08;;;;;;;;;;;16.30;84.20;;;;;;5057244;28;19952;-73
2022/05/21 09:23:57;;;;;;;;;;;16.40;84.30;;;;;;5065411;28;19956;-73
2022/05/21 09:26:25;;;;;;;;;;;16.40;84.10;;;;;;5049439;28;20445;-72
2022/05/21 09:28:51;;;;;;;;;;;16.50;84.00;;;;;;5065396;28;19925;-73
2022/05/21 09:31:23;;;;;;;;;;;16.50;83.90;;;;;;5062899;28;19916;-72
2022/05/21 09:33:49;;;;;;;;;;;16.60;83.70;;;;;;5065823;28;20552;-73
2022/05/21 09:36:18;;;;;;;;;;;16.60;83.50;;;;;;5062476;28;19920;-72
2022/05/21 09:38:49;;;;;;;;;;;16.60;83.60;;;;;;5036493;28;19919;-72
2022/05/21 09:41:27;;;;;;;;;;;16.60;83.60;;;;;;5043090;28;20423;-73
2022/05/21 09:46:36;;;;;;;;;;;16.60;83.70;;;;;;5050208;28;23517;-73
2022/05/21 09:49:12;;;;;;;;;;;16.70;83.60;;;;;;5065706;28;19912;-73
2022/05/21 09:51:40;;;;;;;;;;;16.70;83.50;;;;;;5062438;28;19919;-73
2022/05/21 09:54:19;;;;;;;;;;;16.80;83.10;;;;;;5046306;28;19917;-72
2022/05/21 09:56:52;;;;;;;;;;;16.90;82.70;;;;;;5043311;28;19913;-72
2022/05/21 09:59:22;;;;;;;;;;;17.00;82.60;;;;;;5065239;28;19913;-73
2022/05/21 10:01:49;;;;;;;;;;;17.10;82.20;;;;;;5065293;28;19912;-73
2022/05/21 10:04:19;;;;;;;;;;;17.20;81.90;;;;;;5062560;28;19916;-72
2022/05/21 10:07:08;;;;;;;;;;;17.30;81.70;;;;;;5064650;28;19958;-73
2022/05/21 10:12:25;;;;;;;;;;;17.40;81.10;;;;;;5043537;28;20377;-73
2022/05/21 10:15:00;;;;;;;;;;;17.50;81.00;;;;;;5065280;28;19916;-73
2022/05/21 10:17:31;;;;;;;;;;;17.50;81.00;;;;;;5024916;28;19922;-73
2022/05/21 10:19:59;;;;;;;;;;;17.60;80.90;;;;;;5063695;28;19917;-73
2022/05/21 10:22:41;;;;;;;;;;;17.60;80.90;;;;;;5065052;28;19934;-73
2022/05/21 10:25:17;;;;;;;;;;;17.70;80.90;;;;;;5063279;28;20501;-73
2022/05/21 10:27:43;;;;;;;;;;;17.80;80.60;;;;;;5064913;28;20416;-73
2022/05/21 10:30:27;;;;;;;;;;;17.90;80.20;;;;;;5062312;28;19916;-72
2022/05/21 10:32:56;;;;;;;;;;;18.00;79.90;;;;;;5067520;28;19967;-72
2022/05/21 10:35:36;;;;;;;;;;;18.00;80.00;;;;;;5058472;28;19921;-73
2022/05/21 10:38:07;;;;;;;;;;;18.10;79.90;;;;;;5048215;28;19917;-72
2022/05/21 10:40:33;;;;;;;;;;;18.20;79.50;;;;;;5064653;28;19924;-73
2022/05/21 10:43:13;;;;;;;;;;;18.20;79.30;;;;;;5067944;28;19973;-73
2022/05/21 10:46:01;;;;;;;;;;;18.20;79.50;;;;;;5058912;28;20634;-73
2022/05/21 10:48:46;;;;;;;;;;;18.30;79.70;;;;;;5019197;28;19963;-73
2022/05/21 10:51:33;;;;;;;;;;;18.40;79.60;;;;;;5046218;28;20681;-73
2022/05/21 10:54:08;;;;;;;;;;;18.40;78.70;;;;;;5046187;28;20795;-72
2022/05/21 10:56:42;;;;;;;;;;;18.50;79.10;;;;;;5067160;28;19916;-73
2022/05/21 10:59:26;;;;;;;;;;;18.70;78.90;;;;;;5066225;28;20453;-73
2022/05/21 11:02:04;;;;;;;;;;;18.70;78.70;;;;;;5028152;28;19913;-73
2022/05/21 11:04:41;;;;;;;;;;;18.70;78.70;;;;;;5029726;28;20011;-72
2022/05/21 11:07:10;;;;;;;;;;;18.70;78.30;;;;;;5067388;28;19939;-72
2022/05/21 11:09:55;;;;;;;;;;;18.60;79.10;;;;;;5050312;28;20694;-73
2022/05/21 11:12:25;;;;;;;;;;;18.60;79.20;;;;;;5015964;28;19917;-73
2022/05/21 11:14:51;;;;;;;;;;;18.60;79.20;;;;;;5065117;28;20023;-72
2022/05/21 11:17:27;;;;;;;;;;;18.60;79.20;;;;;;5047564;28;19917;-72
2022/05/21 11:19:58;;;;;;;;;;;18.70;79.10;;;;;;5050828;28;19913;-73
2022/05/21 11:22:44;;;;;;;;;;;18.70;78.30;;;;;;5027498;28;19913;-73
2022/05/21 11:25:16;;;;;;;;;;;18.70;78.90;;;;;;5026433;28;19986;-73
2022/05/21 11:27:57;;;;;;;;;;;18.70;78.80;;;;;;5045515;28;19928;-73
2022/05/21 11:30:23;;;;;;;;;;;18.70;78.90;;;;;;5045907;28;20007;-73
2022/05/21 11:38:50;;;;;;;;;;;18.70;78.70;;;;;;5035681;28;19970;-73
2022/05/21 11:41:27;;;;;;;;;;;18.60;79.20;;;;;;5045527;28;19913;-73
2022/05/21 11:44:55;;;;;;;;;;;18.50;79.50;;;;;;5063125;28;20385;-73
2022/05/21 11:46:48;;;;;;;;;;;18.50;79.60;;;;;;5055416;28;19913;-73
2022/05/21 11:49:26;;;;;;;;;;;18.50;79.30;;;;;;5067048;28;19923;-72
2022/05/21 11:51:52;;;;;;;;;;;18.60;78.70;;;;;;5063815;28;19912;-72
2022/05/21 11:54:36;;;;;;;;;;;18.60;78.90;;;;;;5046874;28;19923;-73
2022/05/21 11:57:03;;;;;;;;;;;18.70;78.70;;;;;;5050191;28;20674;-73
2022/05/21 11:59:48;;;;;;;;;;;18.80;78.30;;;;;;5066395;28;19994;-73
2022/05/21 12:02:18;;;;;;;;;;;18.90;77.90;;;;;;5063826;28;19912;-72
2022/05/21 12:04:43;;;;;;;;;;;18.90;77.70;;;;;;5066597;28;19926;-72
2022/05/21 12:07:14;;;;;;;;;;;18.90;77.80;;;;;;5063359;28;19916;-72
2022/05/21 12:09:56;;;;;;;;;;;18.90;77.80;;;;;;5049522;28;20439;-73
2022/05/21 12:12:23;;;;;;;;;;;18.80;77.80;;;;;;5048065;28;20644;-73
2022/05/21 12:14:53;;;;;;;;;;;18.80;78.50;;;;;;5066347;28;19966;-73
2022/05/21 12:17:37;;;;;;;;;;;18.70;78.30;;;;;;5027760;28;20670;-73
2022/05/21 12:20:05;;;;;;;;;;;18.70;78.70;;;;;;5065468;28;19924;-73
2022/05/21 12:22:41;;;;;;;;;;;18.70;78.70;;;;;;5045330;28;19997;-73
2022/05/21 12:25:14;;;;;;;;;;;18.80;78.40;;;;;;5065876;28;19916;-73
2022/05/21 12:27:53;;;;;;;;;;;18.80;78.60;;;;;;5039859;28;19917;-73
2022/05/21 12:30:29;;;;;;;;;;;18.80;78.60;;;;;;5066323;28;20376;-73
2022/05/21 12:32:55;;;;;;;;;;;18.80;78.10;;;;;;5062363;28;20031;-73
2022/05/21 12:35:24;;;;;;;;;;;18.80;77.10;;;;;;5025101;28;19925;-73
2022/05/21 12:38:10;;;;;;;;;;;18.80;77.50;;;;;;5026642;28;19952;-73
2022/05/21 12:40:39;;;;;;;;;;;18.90;78.10;;;;;;5044641;28;19917;-73
2022/05/21 12:43:12;;;;;;;;;;;18.90;77.50;;;;;;5055566;28;19912;-73
2022/05/21 12:45:43;;;;;;;;;;;18.90;78.10;;;;;;5032725;28;19924;-73
2022/05/21 12:48:29;;;;;;;;;;;18.80;77.90;;;;;;5047029;28;19916;-72
2022/05/21 12:50:54;;;;;;;;;;;18.90;77.50;;;;;;5047228;28;20430;-73
2022/05/21 12:53:40;;;;;;;;;;;19.00;77.10;;;;;;5025128;28;20016;-73
2022/05/21 12:56:18;;;;;;;;;;;19.00;77.30;;;;;;5024885;28;19999;-72
2022/05/21 12:58:43;;;;;;;;;;;19.10;77.10;;;;;;5025517;28;19948;-72
2022/05/21 13:01:21;;;;;;;;;;;19.10;77.20;;;;;;5065706;28;19952;-72
2022/05/21 13:03:46;;;;;;;;;;;19.10;77.10;;;;;;5066638;28;19912;-72
2022/05/21 13:06:13;;;;;;;;;;;19.10;76.50;;;;;;5063379;28;19913;-73
2022/05/21 13:08:40;;;;;;;;;;;19.10;77.10;;;;;;5040118;28;20432;-72
2022/05/21 13:11:14;;;;;;;;;;;19.10;76.50;;;;;;5060242;28;19990;-73
2022/05/21 13:13:41;;;;;;;;;;;19.10;77.20;;;;;;5066071;28;19912;-73
2022/05/21 13:16:08;;;;;;;;;;;19.00;77.60;;;;;;5052671;28;19921;-72
2022/05/21 13:18:52;;;;;;;;;;;18.90;76.80;;;;;;5045808;28;19921;-73
2022/05/21 13:21:20;;;;;;;;;;;18.90;77.70;;;;;;5060205;28;19944;-73
2022/05/21 13:23:45;;;;;;;;;;;19.00;77.00;;;;;;5038325;28;19917;-72
2022/05/21 13:26:31;;;;;;;;;;;19.00;76.70;;;;;;5055774;28;20270;-72
2022/05/21 13:29:12;;;;;;;;;;;19.10;77.00;;;;;;5064251;28;19920;-72
2022/05/21 13:31:37;;;;;;;;;;;19.20;76.90;;;;;;5062908;28;19940;-73
2022/05/21 13:34:03;;;;;;;;;;;19.20;76.50;;;;;;5056817;28;20540;-72
2022/05/21 13:36:31;;;;;;;;;;;19.30;76.40;;;;;;5054282;28;19920;-72
2022/05/21 13:38:57;;;;;;;;;;;19.40;76.20;;;;;;5052760;28;19954;-72
2022/05/21 13:41:36;;;;;;;;;;;19.40;75.70;;;;;;5049525;28;19920;-72
2022/05/21 13:44:05;;;;;;;;;;;19.50;75.50;;;;;;5046059;28;20007;-72
2022/05/21 13:46:32;;;;;;;;;;;19.70;75.30;;;;;;5039928;28;19947;-73
2022/05/21 13:49:00;;;;;;;;;;;19.80;74.90;;;;;;5065360;28;19908;-72
2022/05/21 13:51:28;;;;;;;;;;;19.80;74.70;;;;;;5057039;28;20003;-73
2022/05/21 13:53:54;;;;;;;;;;;19.80;74.90;;;;;;5028130;28;19917;-72
2022/05/21 13:56:36;;;;;;;;;;;19.90;74.80;;;;;;5030558;28;19924;-73
2022/05/21 13:59:11;;;;;;;;;;;19.90;74.80;;;;;;5065581;28;19912;-73
2022/05/21 14:01:37;;;;;;;;;;;19.90;73.80;;;;;;5062789;28;19933;-72
2022/05/21 14:04:07;;;;;;;;;;;20.00;73.70;;;;;;5065206;28;20620;-73
2022/05/21 14:06:39;;;;;;;;;;;20.00;74.00;;;;;;5061859;28;20007;-73
2022/05/21 14:09:04;;;;;;;;;;;20.00;74.10;;;;;;5053724;28;19913;-72
2022/05/21 14:11:30;;;;;;;;;;;20.10;73.90;;;;;;5043310;28;19912;-72
2022/05/21 14:14:00;;;;;;;;;;;20.10;73.70;;;;;;5046439;28;19913;-73
2022/05/21 14:16:31;;;;;;;;;;;20.10;73.20;;;;;;5051815;28;20021;-72
2022/05/21 14:19:00;;;;;;;;;;;20.10;73.90;;;;;;5046297;28;20024;-73
2022/05/21 14:21:26;;;;;;;;;;;20.10;74.00;;;;;;5028465;28;19940;-72
2022/05/21 14:24:06;;;;;;;;;;;20.10;73.50;;;;;;5059420;28;19917;-73
2022/05/21 14:26:31;;;;;;;;;;;20.10;73.50;;;;;;5045782;28;20721;-72
2022/05/21 14:28:58;;;;;;;;;;;20.20;72.80;;;;;;5061535;28;19920;-73
2022/05/21 14:31:35;;;;;;;;;;;20.20;72.60;;;;;;5065500;28;19947;-72
2022/05/21 14:34:19;;;;;;;;;;;20.30;73.10;;;;;;5053736;28;20344;-73
2022/05/21 14:36:46;;;;;;;;;;;20.30;72.80;;;;;;5044619;28;19920;-72
2022/05/21 14:39:11;;;;;;;;;;;20.30;73.20;;;;;;5049184;28;19924;-73
2022/05/21 14:41:39;;;;;;;;;;;20.30;73.90;;;;;;5044725;28;19913;-73
2022/05/21 14:44:12;;;;;;;;;;;20.30;73.30;;;;;;5061252;28;19979;-73
2022/05/21 14:49:21;;;;;;;;;;;20.40;73.50;;;;;;5054425;28;20129;-73
2022/05/21 14:54:34;;;;;;;;;;;20.50;71.90;;;;;;5047119;28;19927;-73
2022/05/21 14:57:00;;;;;;;;;;;20.60;72.10;;;;;;5064577;28;19909;-72
2022/05/21 14:59:25;;;;;;;;;;;20.60;72.20;;;;;;5061653;28;20368;-73
2022/05/21 15:01:52;;;;;;;;;;;20.60;71.90;;;;;;5064561;28;20463;-73